sensor_id;sensor_type;location;lat;lon;timestamp;P1;durP1;ratioP1;P2;durP2;ratioP2
12296;SDS011;6211;49.124;9.152;2022-12-18T00:02:07;3.50;;;2.37;;
12296;SDS011;6211;49.124;9.152;2022-12-18T00:04:35;4.20;;;3.80;;
12296;SDS011;6211;49.124;9.152;2022-12-18T00:07:02;5.20;;;4.77;;
12296;SDS011;6211;49.124;9.152;2022-12-18T00:09:29;7.97;;;4.97;;
12296;SDS011;6211;49.124;9.152;2022-12-18T00:11:56;16.60;;;5.70;;
12296;SDS011;6211;49.124;9.152;2022-12-18T00:14:24;8.13;;;4.23;;
12296;SDS011;6211;49.124;9.152;2022-12-18T00:16:52;5.30;;;4.37;;
12296;SDS011;6211;49.124;9.152;2022-12-18T00:19:19;3.73;;;3.53;;
12296;SDS011;6211;49.124;9.152;2022-12-18T00:21:46;3.63;;;3.37;;
12296;SDS011;6211;49.124;9.152;2022-12-18T00:24:13;4.70;;;4.37;;
12296;SDS011;6211;49.124;9.152;2022-12-18T00:26:40;2.87;;;2.70;;
12296;SDS011;6211;49.124;9.152;2022-12-18T00:29:09;6.57;;;4.87;;
12296;SDS011;6211;49.124;9.152;2022-12-18T00:31:40;4.47;;;3.87;;
12296;SDS011;6211;49.124;9.152;2022-12-18T00:34:08;2.43;;;2.33;;
12296;SDS011;6211;49.124;9.152;2022-12-18T00:36:37;2.70;;;2.50;;
12296;SDS011;6211;49.124;9.152;2022-12-18T00:39:05;5.60;;;3.80;;
12296;SDS011;6211;49.124;9.152;2022-12-18T00:41:32;12.20;;;5.60;;
12296;SDS011;6211;49.124;9.152;2022-12-18T00:44:17;4.13;;;3.93;;
12296;SDS011;6211;49.124;9.152;2022-12-18T00:46:47;8.17;;;3.73;;
12296;SDS011;6211;49.124;9.152;2022-12-18T00:49:15;4.83;;;3.17;;
12296;SDS011;6211;49.124;9.152;2022-12-18T00:51:42;3.10;;;2.90;;
12296;SDS011;6211;49.124;9.152;2022-12-18T00:54:09;3.00;;;2.80;;
12296;SDS011;6211;49.124;9.152;2022-12-18T00:56:37;3.33;;;3.13;;
12296;SDS011;6211;49.124;9.152;2022-12-18T00:59:04;4.30;;;4.00;;
12296;SDS011;6211;49.124;9.152;2022-12-18T01:01:32;4.30;;;3.90;;
12296;SDS011;6211;49.124;9.152;2022-12-18T01:04:01;2.47;;;1.77;;
12296;SDS011;6211;49.124;9.152;2022-12-18T01:06:28;3.83;;;3.10;;
12296;SDS011;6211;49.124;9.152;2022-12-18T01:08:56;15.17;;;5.40;;
12296;SDS011;6211;49.124;9.152;2022-12-18T01:11:23;3.03;;;2.77;;
12296;SDS011;6211;49.124;9.152;2022-12-18T01:13:51;3.97;;;2.53;;
12296;SDS011;6211;49.124;9.152;2022-12-18T01:16:18;4.37;;;3.90;;
12296;SDS011;6211;49.124;9.152;2022-12-18T01:18:45;10.67;;;5.20;;
12296;SDS011;6211;49.124;9.152;2022-12-18T01:21:14;2.83;;;2.67;;
12296;SDS011;6211;49.124;9.152;2022-12-18T01:23:42;3.77;;;3.47;;
12296;SDS011;6211;49.124;9.152;2022-12-18T01:26:10;3.33;;;3.07;;
12296;SDS011;6211;49.124;9.152;2022-12-18T01:28:37;4.83;;;3.90;;
12296;SDS011;6211;49.124;9.152;2022-12-18T01:31:15;6.70;;;2.87;;
12296;SDS011;6211;49.124;9.152;2022-12-18T01:33:43;6.90;;;3.07;;
12296;SDS011;6211;49.124;9.152;2022-12-18T01:36:18;2.60;;;2.40;;
12296;SDS011;6211;49.124;9.152;2022-12-18T01:38:46;1.27;;;1.27;;
12296;SDS011;6211;49.124;9.152;2022-12-18T01:41:14;2.60;;;2.47;;
12296;SDS011;6211;49.124;9.152;2022-12-18T01:43:45;3.73;;;2.53;;
12296;SDS011;6211;49.124;9.152;2022-12-18T01:46:12;2.73;;;2.53;;
12296;SDS011;6211;49.124;9.152;2022-12-18T01:48:40;3.07;;;2.77;;
12296;SDS011;6211;49.124;9.152;2022-12-18T01:51:08;5.43;;;2.40;;
12296;SDS011;6211;49.124;9.152;2022-12-18T01:53:37;3.90;;;3.60;;
12296;SDS011;6211;49.124;9.152;2022-12-18T01:56:06;6.43;;;4.27;;
12296;SDS011;6211;49.124;9.152;2022-12-18T01:58:35;7.43;;;5.47;;
12296;SDS011;6211;49.124;9.152;2022-12-18T02:01:05;4.07;;;3.63;;
12296;SDS011;6211;49.124;9.152;2022-12-18T02:03:32;3.57;;;3.37;;
12296;SDS011;6211;49.124;9.152;2022-12-18T02:06:00;4.43;;;3.47;;
12296;SDS011;6211;49.124;9.152;2022-12-18T02:08:32;4.97;;;4.57;;
12296;SDS011;6211;49.124;9.152;2022-12-18T02:11:04;2.67;;;2.47;;
12296;SDS011;6211;49.124;9.152;2022-12-18T02:13:36;6.00;;;5.37;;
12296;SDS011;6211;49.124;9.152;2022-12-18T02:16:06;4.03;;;3.70;;
12296;SDS011;6211;49.124;9.152;2022-12-18T02:18:36;2.23;;;2.13;;
12296;SDS011;6211;49.124;9.152;2022-12-18T02:21:08;5.27;;;3.53;;
12296;SDS011;6211;49.124;9.152;2022-12-18T02:23:41;4.43;;;4.03;;
12296;SDS011;6211;49.124;9.152;2022-12-18T02:26:15;2.70;;;2.37;;
12296;SDS011;6211;49.124;9.152;2022-12-18T02:28:45;2.10;;;2.00;;
12296;SDS011;6211;49.124;9.152;2022-12-18T02:31:14;4.43;;;4.03;;
12296;SDS011;6211;49.124;9.152;2022-12-18T02:33:42;5.47;;;3.37;;
12296;SDS011;6211;49.124;9.152;2022-12-18T02:36:11;4.70;;;3.50;;
12296;SDS011;6211;49.124;9.152;2022-12-18T02:38:39;5.73;;;4.97;;
12296;SDS011;6211;49.124;9.152;2022-12-18T02:41:07;3.93;;;3.37;;
12296;SDS011;6211;49.124;9.152;2022-12-18T02:43:36;2.43;;;2.33;;
12296;SDS011;6211;49.124;9.152;2022-12-18T02:48:45;1.57;;;1.57;;
12296;SDS011;6211;49.124;9.152;2022-12-18T02:51:14;4.40;;;4.00;;
12296;SDS011;6211;49.124;9.152;2022-12-18T02:53:43;2.37;;;2.27;;
12296;SDS011;6211;49.124;9.152;2022-12-18T02:56:12;6.97;;;4.27;;
12296;SDS011;6211;49.124;9.152;2022-12-18T02:58:44;3.70;;;3.37;;
12296;SDS011;6211;49.124;9.152;2022-12-18T03:01:15;3.73;;;3.37;;
12296;SDS011;6211;49.124;9.152;2022-12-18T03:03:44;3.20;;;2.97;;
12296;SDS011;6211;49.124;9.152;2022-12-18T03:06:14;6.40;;;4.43;;
12296;SDS011;6211;49.124;9.152;2022-12-18T03:08:45;3.20;;;2.17;;
12296;SDS011;6211;49.124;9.152;2022-12-18T03:11:14;5.67;;;5.13;;
12296;SDS011;6211;49.124;9.152;2022-12-18T03:14:02;3.73;;;3.37;;
12296;SDS011;6211;49.124;9.152;2022-12-18T03:16:30;5.07;;;4.70;;
12296;SDS011;6211;49.124;9.152;2022-12-18T03:18:58;1.73;;;1.73;;
12296;SDS011;6211;49.124;9.152;2022-12-18T03:21:28;2.27;;;2.17;;
12296;SDS011;6211;49.124;9.152;2022-12-18T03:23:56;4.93;;;3.27;;
12296;SDS011;6211;49.124;9.152;2022-12-18T03:26:24;2.10;;;2.00;;
12296;SDS011;6211;49.124;9.152;2022-12-18T03:28:53;3.27;;;2.97;;
12296;SDS011;6211;49.124;9.152;2022-12-18T03:31:23;2.50;;;2.40;;
12296;SDS011;6211;49.124;9.152;2022-12-18T03:33:51;5.07;;;4.67;;
12296;SDS011;6211;49.124;9.152;2022-12-18T03:36:19;3.43;;;3.23;;
12296;SDS011;6211;49.124;9.152;2022-12-18T03:38:46;8.03;;;3.23;;
12296;SDS011;6211;49.124;9.152;2022-12-18T03:41:15;3.33;;;3.03;;
12296;SDS011;6211;49.124;9.152;2022-12-18T03:46:50;4.53;;;2.97;;
12296;SDS011;6211;49.124;9.152;2022-12-18T03:49:22;10.37;;;3.40;;
12296;SDS011;6211;49.124;9.152;2022-12-18T03:51:51;7.57;;;4.23;;
12296;SDS011;6211;49.124;9.152;2022-12-18T03:54:19;5.50;;;4.00;;
12296;SDS011;6211;49.124;9.152;2022-12-18T03:56:48;4.93;;;3.73;;
12296;SDS011;6211;49.124;9.152;2022-12-18T03:59:16;5.17;;;3.13;;
12296;SDS011;6211;49.124;9.152;2022-12-18T04:01:45;10.17;;;5.07;;
12296;SDS011;6211;49.124;9.152;2022-12-18T04:04:14;4.50;;;4.13;;
12296;SDS011;6211;49.124;9.152;2022-12-18T04:06:42;4.23;;;3.93;;
12296;SDS011;6211;49.124;9.152;2022-12-18T04:09:10;17.50;;;4.57;;
12296;SDS011;6211;49.124;9.152;2022-12-18T04:11:37;2.30;;;2.10;;
12296;SDS011;6211;49.124;9.152;2022-12-18T04:14:04;2.80;;;2.63;;
12296;SDS011;6211;49.124;9.152;2022-12-18T04:16:31;4.50;;;3.10;;
12296;SDS011;6211;49.124;9.152;2022-12-18T04:18:59;6.93;;;4.97;;
12296;SDS011;6211;49.124;9.152;2022-12-18T04:21:27;7.67;;;4.53;;
12296;SDS011;6211;49.124;9.152;2022-12-18T04:23:54;4.97;;;4.57;;
12296;SDS011;6211;49.124;9.152;2022-12-18T04:26:21;4.77;;;4.43;;
12296;SDS011;6211;49.124;9.152;2022-12-18T04:28:48;5.20;;;3.83;;
12296;SDS011;6211;49.124;9.152;2022-12-18T04:31:16;3.50;;;3.30;;
12296;SDS011;6211;49.124;9.152;2022-12-18T04:33:43;3.97;;;2.57;;
12296;SDS011;6211;49.124;9.152;2022-12-18T04:36:10;5.20;;;4.07;;
12296;SDS011;6211;49.124;9.152;2022-12-18T04:38:39;3.50;;;2.60;;
12296;SDS011;6211;49.124;9.152;2022-12-18T04:41:06;7.73;;;3.63;;
12296;SDS011;6211;49.124;9.152;2022-12-18T04:43:33;4.13;;;3.70;;
12296;SDS011;6211;49.124;9.152;2022-12-18T04:46:01;3.90;;;2.57;;
12296;SDS011;6211;49.124;9.152;2022-12-18T04:48:28;3.23;;;3.07;;
12296;SDS011;6211;49.124;9.152;2022-12-18T04:50:55;3.97;;;3.70;;
12296;SDS011;6211;49.124;9.152;2022-12-18T04:53:22;4.03;;;3.73;;
12296;SDS011;6211;49.124;9.152;2022-12-18T04:55:51;1.87;;;1.77;;
12296;SDS011;6211;49.124;9.152;2022-12-18T04:58:28;3.57;;;1.70;;
12296;SDS011;6211;49.124;9.152;2022-12-18T05:00:55;2.43;;;2.27;;
12296;SDS011;6211;49.124;9.152;2022-12-18T05:03:22;4.17;;;3.17;;
12296;SDS011;6211;49.124;9.152;2022-12-18T05:05:49;5.37;;;3.77;;
12296;SDS011;6211;49.124;9.152;2022-12-18T05:08:16;3.93;;;3.17;;
12296;SDS011;6211;49.124;9.152;2022-12-18T05:10:44;3.67;;;3.33;;
12296;SDS011;6211;49.124;9.152;2022-12-18T05:13:12;4.87;;;3.97;;
12296;SDS011;6211;49.124;9.152;2022-12-18T05:15:39;2.80;;;2.63;;
12296;SDS011;6211;49.124;9.152;2022-12-18T05:18:07;6.60;;;2.97;;
12296;SDS011;6211;49.124;9.152;2022-12-18T05:20:34;5.17;;;3.27;;
12296;SDS011;6211;49.124;9.152;2022-12-18T05:23:01;3.03;;;2.83;;
12296;SDS011;6211;49.124;9.152;2022-12-18T05:25:29;1.57;;;1.47;;
12296;SDS011;6211;49.124;9.152;2022-12-18T05:27:56;1.67;;;1.57;;
12296;SDS011;6211;49.124;9.152;2022-12-18T05:30:24;5.97;;;5.37;;
12296;SDS011;6211;49.124;9.152;2022-12-18T05:32:52;6.03;;;2.40;;
12296;SDS011;6211;49.124;9.152;2022-12-18T05:35:19;2.40;;;2.17;;
12296;SDS011;6211;49.124;9.152;2022-12-18T05:37:46;1.87;;;1.73;;
12296;SDS011;6211;49.124;9.152;2022-12-18T05:40:13;2.53;;;2.40;;
12296;SDS011;6211;49.124;9.152;2022-12-18T05:42:41;2.93;;;2.77;;
12296;SDS011;6211;49.124;9.152;2022-12-18T05:45:08;7.27;;;2.10;;
12296;SDS011;6211;49.124;9.152;2022-12-18T05:47:37;3.23;;;2.77;;
12296;SDS011;6211;49.124;9.152;2022-12-18T05:50:04;4.07;;;3.70;;
12296;SDS011;6211;49.124;9.152;2022-12-18T05:52:32;2.00;;;1.90;;
12296;SDS011;6211;49.124;9.152;2022-12-18T05:54:59;3.70;;;3.50;;
12296;SDS011;6211;49.124;9.152;2022-12-18T05:57:26;1.90;;;1.80;;
12296;SDS011;6211;49.124;9.152;2022-12-18T05:59:53;3.77;;;3.57;;
12296;SDS011;6211;49.124;9.152;2022-12-18T06:02:20;5.03;;;2.77;;
12296;SDS011;6211;49.124;9.152;2022-12-18T06:04:49;4.17;;;3.87;;
12296;SDS011;6211;49.124;9.152;2022-12-18T06:07:16;3.57;;;1.97;;
12296;SDS011;6211;49.124;9.152;2022-12-18T06:09:43;1.77;;;1.67;;
12296;SDS011;6211;49.124;9.152;2022-12-18T06:12:10;2.00;;;1.73;;
12296;SDS011;6211;49.124;9.152;2022-12-18T06:14:37;1.80;;;1.73;;
12296;SDS011;6211;49.124;9.152;2022-12-18T06:17:04;2.57;;;2.40;;
12296;SDS011;6211;49.124;9.152;2022-12-18T06:19:32;5.47;;;4.77;;
12296;SDS011;6211;49.124;9.152;2022-12-18T06:22:00;5.57;;;5.13;;
12296;SDS011;6211;49.124;9.152;2022-12-18T06:24:27;3.97;;;3.50;;
12296;SDS011;6211;49.124;9.152;2022-12-18T06:26:54;2.40;;;2.23;;
12296;SDS011;6211;49.124;9.152;2022-12-18T06:29:21;3.47;;;3.17;;
12296;SDS011;6211;49.124;9.152;2022-12-18T06:31:48;3.13;;;2.93;;
12296;SDS011;6211;49.124;9.152;2022-12-18T06:34:16;1.27;;;1.17;;
12296;SDS011;6211;49.124;9.152;2022-12-18T06:36:43;6.63;;;3.83;;
12296;SDS011;6211;49.124;9.152;2022-12-18T06:39:11;5.80;;;3.40;;
12296;SDS011;6211;49.124;9.152;2022-12-18T06:41:38;2.43;;;2.23;;
12296;SDS011;6211;49.124;9.152;2022-12-18T06:44:05;2.83;;;2.63;;
12296;SDS011;6211;49.124;9.152;2022-12-18T06:46:33;5.37;;;4.87;;
12296;SDS011;6211;49.124;9.152;2022-12-18T06:49:00;3.30;;;3.10;;
12296;SDS011;6211;49.124;9.152;2022-12-18T06:51:27;5.47;;;4.97;;
12296;SDS011;6211;49.124;9.152;2022-12-18T06:53:54;6.20;;;4.07;;
12296;SDS011;6211;49.124;9.152;2022-12-18T06:56:22;5.90;;;5.33;;
12296;SDS011;6211;49.124;9.152;2022-12-18T06:58:49;3.37;;;3.10;;
12296;SDS011;6211;49.124;9.152;2022-12-18T07:01:17;3.17;;;2.97;;
12296;SDS011;6211;49.124;9.152;2022-12-18T07:03:44;2.43;;;2.23;;
12296;SDS011;6211;49.124;9.152;2022-12-18T07:06:15;11.50;;;5.83;;
12296;SDS011;6211;49.124;9.152;2022-12-18T07:08:42;4.13;;;3.83;;
12296;SDS011;6211;49.124;9.152;2022-12-18T07:11:09;5.70;;;4.37;;
12296;SDS011;6211;49.124;9.152;2022-12-18T07:13:38;3.63;;;3.43;;
12296;SDS011;6211;49.124;9.152;2022-12-18T07:16:06;3.40;;;3.20;;
12296;SDS011;6211;49.124;9.152;2022-12-18T07:18:34;6.07;;;5.67;;
12296;SDS011;6211;49.124;9.152;2022-12-18T07:21:02;6.20;;;5.50;;
12296;SDS011;6211;49.124;9.152;2022-12-18T07:23:31;7.77;;;6.03;;
12296;SDS011;6211;49.124;9.152;2022-12-18T07:26:00;4.17;;;2.47;;
12296;SDS011;6211;49.124;9.152;2022-12-18T07:28:27;3.83;;;3.47;;
12296;SDS011;6211;49.124;9.152;2022-12-18T07:30:56;3.43;;;3.23;;
12296;SDS011;6211;49.124;9.152;2022-12-18T07:33:23;4.20;;;3.83;;
12296;SDS011;6211;49.124;9.152;2022-12-18T07:35:51;3.30;;;3.00;;
12296;SDS011;6211;49.124;9.152;2022-12-18T07:38:18;3.43;;;3.13;;
12296;SDS011;6211;49.124;9.152;2022-12-18T07:40:45;3.87;;;3.57;;
12296;SDS011;6211;49.124;9.152;2022-12-18T07:43:12;3.13;;;2.53;;
12296;SDS011;6211;49.124;9.152;2022-12-18T07:45:39;6.50;;;4.20;;
12296;SDS011;6211;49.124;9.152;2022-12-18T07:48:07;4.47;;;4.10;;
12296;SDS011;6211;49.124;9.152;2022-12-18T07:50:35;12.93;;;5.07;;
12296;SDS011;6211;49.124;9.152;2022-12-18T07:53:02;4.37;;;3.47;;
12296;SDS011;6211;49.124;9.152;2022-12-18T07:55:30;4.50;;;4.13;;
12296;SDS011;6211;49.124;9.152;2022-12-18T07:58:00;5.60;;;4.20;;
12296;SDS011;6211;49.124;9.152;2022-12-18T08:00:27;3.93;;;3.53;;
12296;SDS011;6211;49.124;9.152;2022-12-18T08:02:54;4.03;;;3.53;;
12296;SDS011;6211;49.124;9.152;2022-12-18T08:05:22;3.47;;;3.27;;
12296;SDS011;6211;49.124;9.152;2022-12-18T08:07:50;7.97;;;6.13;;
12296;SDS011;6211;49.124;9.152;2022-12-18T08:10:17;7.13;;;6.27;;
12296;SDS011;6211;49.124;9.152;2022-12-18T08:12:44;2.80;;;2.70;;
12296;SDS011;6211;49.124;9.152;2022-12-18T08:15:11;4.20;;;3.90;;
12296;SDS011;6211;49.124;9.152;2022-12-18T08:17:38;4.47;;;3.07;;
12296;SDS011;6211;49.124;9.152;2022-12-18T08:20:06;6.27;;;5.43;;
12296;SDS011;6211;49.124;9.152;2022-12-18T08:22:35;4.60;;;4.20;;
12296;SDS011;6211;49.124;9.152;2022-12-18T08:25:02;3.87;;;3.30;;
12296;SDS011;6211;49.124;9.152;2022-12-18T08:27:29;5.23;;;4.90;;
12296;SDS011;6211;49.124;9.152;2022-12-18T08:29:56;9.40;;;6.13;;
12296;SDS011;6211;49.124;9.152;2022-12-18T08:32:24;4.00;;;3.70;;
12296;SDS011;6211;49.124;9.152;2022-12-18T08:34:51;3.40;;;3.10;;
12296;SDS011;6211;49.124;9.152;2022-12-18T08:37:18;4.17;;;3.63;;
12296;SDS011;6211;49.124;9.152;2022-12-18T08:39:47;6.50;;;5.87;;
12296;SDS011;6211;49.124;9.152;2022-12-18T08:42:14;4.83;;;4.53;;
12296;SDS011;6211;49.124;9.152;2022-12-18T08:44:59;12.60;;;5.27;;
12296;SDS011;6211;49.124;9.152;2022-12-18T08:47:26;7.10;;;5.80;;
12296;SDS011;6211;49.124;9.152;2022-12-18T08:49:53;4.10;;;3.70;;
12296;SDS011;6211;49.124;9.152;2022-12-18T08:52:20;5.50;;;4.93;;
12296;SDS011;6211;49.124;9.152;2022-12-18T08:54:49;7.70;;;4.80;;
12296;SDS011;6211;49.124;9.152;2022-12-18T08:57:16;6.13;;;5.63;;
12296;SDS011;6211;49.124;9.152;2022-12-18T08:59:43;8.87;;;4.50;;
12296;SDS011;6211;49.124;9.152;2022-12-18T09:02:10;5.33;;;3.90;;
12296;SDS011;6211;49.124;9.152;2022-12-18T09:04:38;2.70;;;2.50;;
12296;SDS011;6211;49.124;9.152;2022-12-18T09:07:05;6.47;;;5.33;;
12296;SDS011;6211;49.124;9.152;2022-12-18T09:09:32;9.73;;;6.00;;
12296;SDS011;6211;49.124;9.152;2022-12-18T09:12:01;10.33;;;6.03;;
12296;SDS011;6211;49.124;9.152;2022-12-18T09:14:28;7.83;;;4.13;;
12296;SDS011;6211;49.124;9.152;2022-12-18T09:16:55;11.13;;;6.50;;
12296;SDS011;6211;49.124;9.152;2022-12-18T09:19:22;4.40;;;3.97;;
12296;SDS011;6211;49.124;9.152;2022-12-18T09:21:49;3.63;;;3.30;;
12296;SDS011;6211;49.124;9.152;2022-12-18T09:24:16;4.23;;;3.03;;
12296;SDS011;6211;49.124;9.152;2022-12-18T09:26:43;6.43;;;4.63;;
12296;SDS011;6211;49.124;9.152;2022-12-18T09:29:12;9.47;;;3.70;;
12296;SDS011;6211;49.124;9.152;2022-12-18T09:31:39;3.97;;;3.30;;
12296;SDS011;6211;49.124;9.152;2022-12-18T09:34:07;4.93;;;4.47;;
12296;SDS011;6211;49.124;9.152;2022-12-18T09:36:34;5.30;;;3.17;;
12296;SDS011;6211;49.124;9.152;2022-12-18T09:39:01;5.20;;;3.73;;
12296;SDS011;6211;49.124;9.152;2022-12-18T09:41:37;5.93;;;3.23;;
12296;SDS011;6211;49.124;9.152;2022-12-18T09:44:10;7.13;;;4.33;;
12296;SDS011;6211;49.124;9.152;2022-12-18T09:46:40;5.87;;;3.70;;
12296;SDS011;6211;49.124;9.152;2022-12-18T09:49:11;5.93;;;3.40;;
12296;SDS011;6211;49.124;9.152;2022-12-18T09:51:40;5.43;;;5.07;;
12296;SDS011;6211;49.124;9.152;2022-12-18T09:54:11;8.63;;;4.63;;
12296;SDS011;6211;49.124;9.152;2022-12-18T09:56:40;3.40;;;3.10;;
12296;SDS011;6211;49.124;9.152;2022-12-18T09:59:13;5.60;;;3.57;;
12296;SDS011;6211;49.124;9.152;2022-12-18T10:01:45;4.87;;;3.43;;
12296;SDS011;6211;49.124;9.152;2022-12-18T10:04:12;6.63;;;4.67;;
12296;SDS011;6211;49.124;9.152;2022-12-18T10:06:41;4.83;;;4.17;;
12296;SDS011;6211;49.124;9.152;2022-12-18T10:09:12;5.33;;;4.63;;
12296;SDS011;6211;49.124;9.152;2022-12-18T10:11:43;8.37;;;5.07;;
12296;SDS011;6211;49.124;9.152;2022-12-18T10:14:14;5.87;;;5.27;;
12296;SDS011;6211;49.124;9.152;2022-12-18T10:16:50;6.17;;;4.10;;
12296;SDS011;6211;49.124;9.152;2022-12-18T10:19:24;7.80;;;4.67;;
12296;SDS011;6211;49.124;9.152;2022-12-18T10:21:57;6.70;;;6.03;;
12296;SDS011;6211;49.124;9.152;2022-12-18T10:24:27;7.03;;;4.50;;
12296;SDS011;6211;49.124;9.152;2022-12-18T10:26:59;4.87;;;3.27;;
12296;SDS011;6211;49.124;9.152;2022-12-18T10:29:31;5.10;;;3.83;;
12296;SDS011;6211;49.124;9.152;2022-12-18T10:31:59;13.00;;;6.20;;
12296;SDS011;6211;49.124;9.152;2022-12-18T10:34:27;10.37;;;4.80;;
12296;SDS011;6211;49.124;9.152;2022-12-18T10:36:54;8.27;;;6.93;;
12296;SDS011;6211;49.124;9.152;2022-12-18T10:39:22;6.30;;;5.27;;
12296;SDS011;6211;49.124;9.152;2022-12-18T10:41:50;8.23;;;6.73;;
12296;SDS011;6211;49.124;9.152;2022-12-18T10:44:17;10.63;;;7.33;;
12296;SDS011;6211;49.124;9.152;2022-12-18T10:46:45;7.33;;;5.27;;
12296;SDS011;6211;49.124;9.152;2022-12-18T10:49:21;11.93;;;7.73;;
12296;SDS011;6211;49.124;9.152;2022-12-18T10:51:48;8.10;;;5.07;;
12296;SDS011;6211;49.124;9.152;2022-12-18T10:54:16;15.43;;;6.83;;
12296;SDS011;6211;49.124;9.152;2022-12-18T10:56:44;9.83;;;7.33;;
12296;SDS011;6211;49.124;9.152;2022-12-18T10:59:12;13.33;;;6.07;;
12296;SDS011;6211;49.124;9.152;2022-12-18T11:01:47;12.98;;;6.82;;
12296;SDS011;6211;49.124;9.152;2022-12-18T11:04:16;9.98;;;7.65;;
12296;SDS011;6211;49.124;9.152;2022-12-18T11:06:53;9.90;;;6.43;;
12296;SDS011;6211;49.124;9.152;2022-12-18T11:09:21;8.50;;;6.25;;
12296;SDS011;6211;49.124;9.152;2022-12-18T11:11:49;8.48;;;7.57;;
12296;SDS011;6211;49.124;9.152;2022-12-18T11:14:18;19.05;;;8.18;;
12296;SDS011;6211;49.124;9.152;2022-12-18T11:16:47;7.18;;;6.35;;
12296;SDS011;6211;49.124;9.152;2022-12-18T11:19:19;9.52;;;6.78;;
12296;SDS011;6211;49.124;9.152;2022-12-18T11:21:49;10.65;;;7.13;;
12296;SDS011;6211;49.124;9.152;2022-12-18T11:24:22;12.00;;;7.13;;
12296;SDS011;6211;49.124;9.152;2022-12-18T11:26:53;10.40;;;7.47;;
12296;SDS011;6211;49.124;9.152;2022-12-18T11:29:22;8.10;;;6.03;;
12296;SDS011;6211;49.124;9.152;2022-12-18T11:31:50;6.80;;;3.92;;
12296;SDS011;6211;49.124;9.152;2022-12-18T11:34:19;9.32;;;7.45;;
12296;SDS011;6211;49.124;9.152;2022-12-18T11:36:49;7.40;;;6.20;;
12296;SDS011;6211;49.124;9.152;2022-12-18T11:39:17;12.05;;;6.25;;
12296;SDS011;6211;49.124;9.152;2022-12-18T11:41:48;14.20;;;8.27;;
12296;SDS011;6211;49.124;9.152;2022-12-18T11:44:38;14.38;;;7.38;;
12296;SDS011;6211;49.124;9.152;2022-12-18T11:47:09;9.80;;;7.05;;
12296;SDS011;6211;49.124;9.152;2022-12-18T11:49:38;15.65;;;8.25;;
12296;SDS011;6211;49.124;9.152;2022-12-18T11:52:14;18.15;;;8.68;;
12296;SDS011;6211;49.124;9.152;2022-12-18T11:54:42;14.73;;;8.45;;
12296;SDS011;6211;49.124;9.152;2022-12-18T11:57:13;13.23;;;8.55;;
12296;SDS011;6211;49.124;9.152;2022-12-18T11:59:47;21.00;;;10.38;;
12296;SDS011;6211;49.124;9.152;2022-12-18T12:02:23;14.60;;;7.30;;
12296;SDS011;6211;49.124;9.152;2022-12-18T12:04:59;15.18;;;8.23;;
12296;SDS011;6211;49.124;9.152;2022-12-18T12:07:34;13.80;;;8.45;;
12296;SDS011;6211;49.124;9.152;2022-12-18T12:10:06;16.13;;;8.00;;
12296;SDS011;6211;49.124;9.152;2022-12-18T12:12:38;18.90;;;9.80;;
12296;SDS011;6211;49.124;9.152;2022-12-18T12:15:21;14.85;;;8.20;;
12296;SDS011;6211;49.124;9.152;2022-12-18T12:17:50;12.60;;;7.32;;
12296;SDS011;6211;49.124;9.152;2022-12-18T12:20:22;13.27;;;7.97;;
12296;SDS011;6211;49.124;9.152;2022-12-18T12:22:53;15.02;;;7.68;;
12296;SDS011;6211;49.124;9.152;2022-12-18T12:25:27;14.10;;;8.30;;
12296;SDS011;6211;49.124;9.152;2022-12-18T12:27:58;12.82;;;7.47;;
12296;SDS011;6211;49.124;9.152;2022-12-18T12:30:29;14.80;;;7.13;;
12296;SDS011;6211;49.124;9.152;2022-12-18T12:33:01;18.63;;;9.00;;
12296;SDS011;6211;49.124;9.152;2022-12-18T12:35:31;16.70;;;8.32;;
12296;SDS011;6211;49.124;9.152;2022-12-18T12:38:05;15.63;;;7.50;;
12296;SDS011;6211;49.124;9.152;2022-12-18T12:40:35;16.50;;;8.02;;
12296;SDS011;6211;49.124;9.152;2022-12-18T12:43:05;18.67;;;8.32;;
12296;SDS011;6211;49.124;9.152;2022-12-18T12:45:40;14.57;;;8.48;;
12296;SDS011;6211;49.124;9.152;2022-12-18T12:48:11;14.77;;;7.45;;
12296;SDS011;6211;49.124;9.152;2022-12-18T12:50:42;15.43;;;8.02;;
12296;SDS011;6211;49.124;9.152;2022-12-18T12:53:11;16.48;;;8.02;;
12296;SDS011;6211;49.124;9.152;2022-12-18T12:55:42;17.88;;;8.00;;
12296;SDS011;6211;49.124;9.152;2022-12-18T12:58:12;15.95;;;8.90;;
12296;SDS011;6211;49.124;9.152;2022-12-18T13:00:43;13.93;;;8.60;;
12296;SDS011;6211;49.124;9.152;2022-12-18T13:03:12;14.05;;;7.13;;
12296;SDS011;6211;49.124;9.152;2022-12-18T13:05:43;14.63;;;7.85;;
12296;SDS011;6211;49.124;9.152;2022-12-18T13:08:21;12.88;;;7.60;;
12296;SDS011;6211;49.124;9.152;2022-12-18T13:10:48;13.52;;;7.80;;
12296;SDS011;6211;49.124;9.152;2022-12-18T13:13:44;13.57;;;8.23;;
12296;SDS011;6211;49.124;9.152;2022-12-18T13:16:13;13.50;;;7.20;;
12296;SDS011;6211;49.124;9.152;2022-12-18T13:18:48;14.10;;;7.25;;
12296;SDS011;6211;49.124;9.152;2022-12-18T13:21:17;19.38;;;7.75;;
12296;SDS011;6211;49.124;9.152;2022-12-18T13:23:46;17.35;;;8.88;;
12296;SDS011;6211;49.124;9.152;2022-12-18T13:26:28;10.40;;;6.35;;
12296;SDS011;6211;49.124;9.152;2022-12-18T13:28:57;13.02;;;7.18;;
12296;SDS011;6211;49.124;9.152;2022-12-18T13:34:14;12.65;;;7.00;;
12296;SDS011;6211;49.124;9.152;2022-12-18T13:36:42;13.63;;;8.50;;
12296;SDS011;6211;49.124;9.152;2022-12-18T13:44:58;11.82;;;7.13;;
12296;SDS011;6211;49.124;9.152;2022-12-18T13:47:26;12.18;;;7.10;;
12296;SDS011;6211;49.124;9.152;2022-12-18T13:49:54;12.77;;;6.90;;
12296;SDS011;6211;49.124;9.152;2022-12-18T13:52:23;17.73;;;8.18;;
12296;SDS011;6211;49.124;9.152;2022-12-18T13:54:51;13.38;;;7.50;;
12296;SDS011;6211;49.124;9.152;2022-12-18T13:57:29;14.95;;;8.48;;
12296;SDS011;6211;49.124;9.152;2022-12-18T13:59:56;12.45;;;6.75;;
12296;SDS011;6211;49.124;9.152;2022-12-18T14:02:25;18.00;;;10.30;;
12296;SDS011;6211;49.124;9.152;2022-12-18T14:04:53;16.92;;;8.73;;
12296;SDS011;6211;49.124;9.152;2022-12-18T14:07:21;15.95;;;6.80;;
12296;SDS011;6211;49.124;9.152;2022-12-18T14:09:49;16.15;;;7.20;;
12296;SDS011;6211;49.124;9.152;2022-12-18T14:12:17;12.77;;;6.65;;
12296;SDS011;6211;49.124;9.152;2022-12-18T14:15:03;12.75;;;6.03;;
12296;SDS011;6211;49.124;9.152;2022-12-18T14:17:32;10.85;;;7.43;;
12296;SDS011;6211;49.124;9.152;2022-12-18T14:19:59;10.15;;;7.00;;
12296;SDS011;6211;49.124;9.152;2022-12-18T14:22:26;12.80;;;7.43;;
12296;SDS011;6211;49.124;9.152;2022-12-18T14:25:14;7.28;;;5.60;;
12296;SDS011;6211;49.124;9.152;2022-12-18T14:27:42;14.07;;;8.20;;
12296;SDS011;6211;49.124;9.152;2022-12-18T14:30:25;9.15;;;6.15;;
12296;SDS011;6211;49.124;9.152;2022-12-18T14:33:08;7.20;;;5.10;;
12296;SDS011;6211;49.124;9.152;2022-12-18T14:35:36;6.47;;;5.13;;
12296;SDS011;6211;49.124;9.152;2022-12-18T14:38:11;9.00;;;6.75;;
12296;SDS011;6211;49.124;9.152;2022-12-18T14:40:38;6.30;;;4.45;;
12296;SDS011;6211;49.124;9.152;2022-12-18T14:43:05;7.75;;;5.47;;
12296;SDS011;6211;49.124;9.152;2022-12-18T14:45:33;13.48;;;6.60;;
12296;SDS011;6211;49.124;9.152;2022-12-18T14:48:00;10.13;;;6.45;;
12296;SDS011;6211;49.124;9.152;2022-12-18T14:50:35;10.53;;;6.77;;
12296;SDS011;6211;49.124;9.152;2022-12-18T14:53:02;9.15;;;5.07;;
12296;SDS011;6211;49.124;9.152;2022-12-18T14:55:29;8.37;;;5.97;;
12296;SDS011;6211;49.124;9.152;2022-12-18T14:57:56;9.67;;;5.80;;
12296;SDS011;6211;49.124;9.152;2022-12-18T15:00:24;9.23;;;6.63;;
12296;SDS011;6211;49.124;9.152;2022-12-18T15:02:52;5.73;;;4.90;;
12296;SDS011;6211;49.124;9.152;2022-12-18T15:05:21;9.23;;;5.70;;
12296;SDS011;6211;49.124;9.152;2022-12-18T15:07:53;7.40;;;5.60;;
12296;SDS011;6211;49.124;9.152;2022-12-18T15:10:21;8.57;;;5.33;;
12296;SDS011;6211;49.124;9.152;2022-12-18T15:12:49;4.53;;;3.77;;
12296;SDS011;6211;49.124;9.152;2022-12-18T15:18:02;11.27;;;6.53;;
12296;SDS011;6211;49.124;9.152;2022-12-18T15:20:31;6.93;;;4.67;;
12296;SDS011;6211;49.124;9.152;2022-12-18T15:23:00;9.87;;;4.83;;
12296;SDS011;6211;49.124;9.152;2022-12-18T15:25:30;9.07;;;5.87;;
12296;SDS011;6211;49.124;9.152;2022-12-18T15:27:58;10.30;;;6.40;;